sensor_id;sensor_type;location;lat;lon;timestamp;P1;durP1;ratioP1;P2;durP2;ratioP2
72603;SDS011;60645;56.968;24.196;2022-09-09T00:01:49;3.55;;;0.22;;
72603;SDS011;60645;56.968;24.196;2022-09-09T00:04:34;2.92;;;1.55;;
72603;SDS011;60645;56.968;24.196;2022-09-09T00:15:05;1.05;;;0.30;;
72603;SDS011;60645;56.968;24.196;2022-09-09T00:17:43;0.52;;;0.10;;
72603;SDS011;60645;56.968;24.196;2022-09-09T00:23:14;1.75;;;0.20;;
72603;SDS011;60645;56.968;24.196;2022-09-09T00:25:58;2.30;;;0.32;;
72603;SDS011;60645;56.968;24.196;2022-09-09T00:28:30;3.47;;;0.10;;
72603;SDS011;60645;56.968;24.196;2022-09-09T00:31:10;2.60;;;0.20;;
72603;SDS011;60645;56.968;24.196;2022-09-09T00:33:40;0.57;;;0.10;;
72603;SDS011;60645;56.968;24.196;2022-09-09T00:36:13;1.38;;;0.38;;
72603;SDS011;60645;56.968;24.196;2022-09-09T00:38:45;0.98;;;0.10;;
72603;SDS011;60645;56.968;24.196;2022-09-09T00:41:22;1.00;;;0.28;;
72603;SDS011;60645;56.968;24.196;2022-09-09T00:44:50;3.45;;;0.68;;
72603;SDS011;60645;56.968;24.196;2022-09-09T00:57:25;0.77;;;0.10;;
72603;SDS011;60645;56.968;24.196;2022-09-09T01:05:39;1.60;;;0.38;;
72603;SDS011;60645;56.968;24.196;2022-09-09T01:10:54;0.50;;;0.10;;
72603;SDS011;60645;56.968;24.196;2022-09-09T01:13:28;1.85;;;0.10;;
72603;SDS011;60645;56.968;24.196;2022-09-09T01:16:02;0.93;;;0.10;;
72603;SDS011;60645;56.968;24.196;2022-09-09T01:18:35;1.58;;;0.30;;
72603;SDS011;60645;56.968;24.196;2022-09-09T01:26:45;1.52;;;0.20;;
72603;SDS011;60645;56.968;24.196;2022-09-09T01:29:13;0.77;;;0.13;;
72603;SDS011;60645;56.968;24.196;2022-09-09T01:31:52;0.88;;;0.30;;
72603;SDS011;60645;56.968;24.196;2022-09-09T01:34:25;0.70;;;0.25;;
72603;SDS011;60645;56.968;24.196;2022-09-09T01:36:59;1.45;;;0.13;;
72603;SDS011;60645;56.968;24.196;2022-09-09T01:39:34;1.13;;;0.20;;
72603;SDS011;60645;56.968;24.196;2022-09-09T01:42:02;2.05;;;0.52;;
72603;SDS011;60645;56.968;24.196;2022-09-09T01:44:32;2.15;;;0.20;;
72603;SDS011;60645;56.968;24.196;2022-09-09T01:47:00;0.95;;;0.30;;
72603;SDS011;60645;56.968;24.196;2022-09-09T01:49:27;2.38;;;0.38;;
72603;SDS011;60645;56.968;24.196;2022-09-09T01:51:54;1.13;;;0.20;;
72603;SDS011;60645;56.968;24.196;2022-09-09T01:54:23;0.68;;;0.13;;
72603;SDS011;60645;56.968;24.196;2022-09-09T02:02:17;1.40;;;0.15;;
72603;SDS011;60645;56.968;24.196;2022-09-09T02:04:51;1.45;;;0.20;;
72603;SDS011;60645;56.968;24.196;2022-09-09T02:10:32;1.42;;;0.13;;
72603;SDS011;60645;56.968;24.196;2022-09-09T02:13:10;4.07;;;0.47;;
72603;SDS011;60645;56.968;24.196;2022-09-09T02:18:24;2.88;;;0.32;;
72603;SDS011;60645;56.968;24.196;2022-09-09T02:21:18;0.98;;;0.20;;
72603;SDS011;60645;56.968;24.196;2022-09-09T02:23:47;1.30;;;0.17;;
72603;SDS011;60645;56.968;24.196;2022-09-09T02:26:18;1.73;;;0.20;;
72603;SDS011;60645;56.968;24.196;2022-09-09T02:28:49;1.38;;;0.22;;
72603;SDS011;60645;56.968;24.196;2022-09-09T02:31:20;3.17;;;0.43;;
72603;SDS011;60645;56.968;24.196;2022-09-09T02:33:51;0.98;;;0.30;;
72603;SDS011;60645;56.968;24.196;2022-09-09T02:36:21;1.73;;;0.22;;
72603;SDS011;60645;56.968;24.196;2022-09-09T02:38:51;1.45;;;0.20;;
72603;SDS011;60645;56.968;24.196;2022-09-09T02:41:20;2.70;;;0.25;;
72603;SDS011;60645;56.968;24.196;2022-09-09T02:43:52;1.38;;;0.47;;
72603;SDS011;60645;56.968;24.196;2022-09-09T02:49:28;1.95;;;0.38;;
72603;SDS011;60645;56.968;24.196;2022-09-09T02:52:20;0.65;;;0.32;;
72603;SDS011;60645;56.968;24.196;2022-09-09T02:54:54;1.25;;;0.30;;
72603;SDS011;60645;56.968;24.196;2022-09-09T02:57:31;1.48;;;0.30;;
72603;SDS011;60645;56.968;24.196;2022-09-09T03:00:00;1.30;;;0.20;;
72603;SDS011;60645;56.968;24.196;2022-09-09T03:02:28;1.50;;;0.32;;
72603;SDS011;60645;56.968;24.196;2022-09-09T03:04:55;2.38;;;0.40;;
72603;SDS011;60645;56.968;24.196;2022-09-09T03:07:21;2.63;;;0.40;;
72603;SDS011;60645;56.968;24.196;2022-09-09T03:09:48;2.00;;;0.30;;
72603;SDS011;60645;56.968;24.196;2022-09-09T03:12:15;1.73;;;0.50;;
72603;SDS011;60645;56.968;24.196;2022-09-09T03:14:42;1.48;;;0.60;;
72603;SDS011;60645;56.968;24.196;2022-09-09T03:17:11;1.42;;;0.43;;
72603;SDS011;60645;56.968;24.196;2022-09-09T03:19:38;1.02;;;0.40;;
72603;SDS011;60645;56.968;24.196;2022-09-09T03:22:06;1.63;;;0.25;;
72603;SDS011;60645;56.968;24.196;2022-09-09T03:24:34;2.10;;;0.25;;
72603;SDS011;60645;56.968;24.196;2022-09-09T03:27:01;2.92;;;0.43;;
72603;SDS011;60645;56.968;24.196;2022-09-09T03:29:28;2.08;;;0.40;;
72603;SDS011;60645;56.968;24.196;2022-09-09T03:31:54;2.03;;;0.45;;
72603;SDS011;60645;56.968;24.196;2022-09-09T03:34:21;1.90;;;0.93;;
72603;SDS011;60645;56.968;24.196;2022-09-09T03:36:48;1.48;;;0.30;;
72603;SDS011;60645;56.968;24.196;2022-09-09T03:39:15;1.35;;;0.43;;
72603;SDS011;60645;56.968;24.196;2022-09-09T03:41:42;1.00;;;0.43;;
72603;SDS011;60645;56.968;24.196;2022-09-09T03:44:11;1.70;;;0.38;;
72603;SDS011;60645;56.968;24.196;2022-09-09T03:46:38;2.70;;;0.80;;
72603;SDS011;60645;56.968;24.196;2022-09-09T03:49:05;1.75;;;0.43;;
72603;SDS011;60645;56.968;24.196;2022-09-09T03:51:32;1.38;;;0.30;;
72603;SDS011;60645;56.968;24.196;2022-09-09T03:54:02;2.13;;;0.43;;
72603;SDS011;60645;56.968;24.196;2022-09-09T03:56:31;1.42;;;0.32;;
72603;SDS011;60645;56.968;24.196;2022-09-09T03:58:58;1.23;;;0.30;;
72603;SDS011;60645;56.968;24.196;2022-09-09T04:01:25;4.10;;;0.70;;
72603;SDS011;60645;56.968;24.196;2022-09-09T04:03:52;2.50;;;0.38;;
72603;SDS011;60645;56.968;24.196;2022-09-09T04:06:19;1.60;;;0.30;;
72603;SDS011;60645;56.968;24.196;2022-09-09T04:08:47;1.63;;;0.30;;
72603;SDS011;60645;56.968;24.196;2022-09-09T04:11:15;1.52;;;0.32;;
72603;SDS011;60645;56.968;24.196;2022-09-09T04:13:42;0.73;;;0.40;;
72603;SDS011;60645;56.968;24.196;2022-09-09T04:16:11;2.28;;;0.30;;
72603;SDS011;60645;56.968;24.196;2022-09-09T04:18:39;2.20;;;0.30;;
72603;SDS011;60645;56.968;24.196;2022-09-09T04:21:06;2.00;;;0.20;;
72603;SDS011;60645;56.968;24.196;2022-09-09T04:23:35;1.02;;;0.32;;
72603;SDS011;60645;56.968;24.196;2022-09-09T04:26:04;2.95;;;0.30;;
72603;SDS011;60645;56.968;24.196;2022-09-09T04:28:33;0.85;;;0.32;;
72603;SDS011;60645;56.968;24.196;2022-09-09T04:31:05;2.08;;;0.52;;
72603;SDS011;60645;56.968;24.196;2022-09-09T04:33:34;4.40;;;0.52;;
72603;SDS011;60645;56.968;24.196;2022-09-09T04:36:05;1.70;;;0.70;;
72603;SDS011;60645;56.968;24.196;2022-09-09T04:38:33;1.00;;;0.32;;
72603;SDS011;60645;56.968;24.196;2022-09-09T04:41:00;3.25;;;0.38;;
72603;SDS011;60645;56.968;24.196;2022-09-09T04:43:27;2.08;;;0.47;;
72603;SDS011;60645;56.968;24.196;2022-09-09T04:45:54;2.42;;;0.57;;
72603;SDS011;60645;56.968;24.196;2022-09-09T04:48:22;1.67;;;0.47;;
72603;SDS011;60645;56.968;24.196;2022-09-09T04:50:56;1.95;;;0.45;;
72603;SDS011;60645;56.968;24.196;2022-09-09T04:53:35;2.25;;;0.52;;
72603;SDS011;60645;56.968;24.196;2022-09-09T04:56:06;5.80;;;0.45;;
72603;SDS011;60645;56.968;24.196;2022-09-09T04:58:36;1.13;;;0.35;;
72603;SDS011;60645;56.968;24.196;2022-09-09T05:03:48;2.47;;;0.40;;
72603;SDS011;60645;56.968;24.196;2022-09-09T05:06:16;2.47;;;0.55;;
72603;SDS011;60645;56.968;24.196;2022-09-09T05:08:44;6.50;;;0.63;;
72603;SDS011;60645;56.968;24.196;2022-09-09T05:13:52;3.63;;;0.63;;
72603;SDS011;60645;56.968;24.196;2022-09-09T05:16:20;1.58;;;0.77;;
72603;SDS011;60645;56.968;24.196;2022-09-09T05:18:49;5.22;;;0.70;;
72603;SDS011;60645;56.968;24.196;2022-09-09T05:21:18;1.00;;;0.47;;
72603;SDS011;60645;56.968;24.196;2022-09-09T05:23:46;2.88;;;0.43;;
72603;SDS011;60645;56.968;24.196;2022-09-09T05:26:14;3.58;;;0.43;;
72603;SDS011;60645;56.968;24.196;2022-09-09T05:28:43;2.03;;;0.70;;
72603;SDS011;60645;56.968;24.196;2022-09-09T05:31:11;4.90;;;0.90;;
72603;SDS011;60645;56.968;24.196;2022-09-09T05:33:43;5.15;;;0.73;;
72603;SDS011;60645;56.968;24.196;2022-09-09T05:36:16;3.38;;;0.68;;
72603;SDS011;60645;56.968;24.196;2022-09-09T05:38:44;1.73;;;0.60;;
72603;SDS011;60645;56.968;24.196;2022-09-09T05:41:11;2.05;;;0.60;;
72603;SDS011;60645;56.968;24.196;2022-09-09T05:43:41;3.35;;;0.63;;
72603;SDS011;60645;56.968;24.196;2022-09-09T05:46:11;2.72;;;0.73;;
72603;SDS011;60645;56.968;24.196;2022-09-09T05:48:43;3.42;;;0.70;;
72603;SDS011;60645;56.968;24.196;2022-09-09T05:51:13;1.58;;;0.30;;
72603;SDS011;60645;56.968;24.196;2022-09-09T05:53:42;3.40;;;0.68;;
72603;SDS011;60645;56.968;24.196;2022-09-09T05:56:10;2.15;;;0.55;;
72603;SDS011;60645;56.968;24.196;2022-09-09T05:58:40;2.95;;;0.52;;
72603;SDS011;60645;56.968;24.196;2022-09-09T06:01:10;3.38;;;0.75;;
72603;SDS011;60645;56.968;24.196;2022-09-09T06:03:40;5.55;;;0.60;;
72603;SDS011;60645;56.968;24.196;2022-09-09T06:06:14;2.00;;;0.63;;
72603;SDS011;60645;56.968;24.196;2022-09-09T19:58:51;5.03;;;1.42;;
72603;SDS011;60645;56.968;24.196;2022-09-09T20:03:48;3.28;;;1.55;;
72603;SDS011;60645;56.968;24.196;2022-09-09T20:06:18;5.25;;;2.00;;
72603;SDS011;60645;56.968;24.196;2022-09-09T20:08:48;7.25;;;1.92;;
72603;SDS011;60645;56.968;24.196;2022-09-09T20:11:16;4.75;;;1.45;;
72603;SDS011;60645;56.968;24.196;2022-09-09T20:13:43;16.65;;;1.08;;
72603;SDS011;60645;56.968;24.196;2022-09-09T20:16:13;4.80;;;1.45;;
72603;SDS011;60645;56.968;24.196;2022-09-09T20:18:43;6.00;;;1.40;;
72603;SDS011;60645;56.968;24.196;2022-09-09T20:21:14;5.38;;;1.00;;
72603;SDS011;60645;56.968;24.196;2022-09-09T20:23:42;5.55;;;1.17;;
72603;SDS011;60645;56.968;24.196;2022-09-09T20:26:11;4.30;;;1.27;;
72603;SDS011;60645;56.968;24.196;2022-09-09T20:28:39;5.53;;;1.63;;
72603;SDS011;60645;56.968;24.196;2022-09-09T20:31:11;2.63;;;1.00;;
72603;SDS011;60645;56.968;24.196;2022-09-09T20:33:40;4.68;;;1.30;;
72603;SDS011;60645;56.968;24.196;2022-09-09T20:36:27;2.30;;;1.10;;
72603;SDS011;60645;56.968;24.196;2022-09-09T20:38:57;5.72;;;1.17;;
72603;SDS011;60645;56.968;24.196;2022-09-09T20:41:45;5.50;;;1.27;;
72603;SDS011;60645;56.968;24.196;2022-09-09T20:44:16;3.47;;;1.15;;
72603;SDS011;60645;56.968;24.196;2022-09-09T20:46:45;2.58;;;1.08;;
72603;SDS011;60645;56.968;24.196;2022-09-09T20:49:14;4.03;;;1.10;;
72603;SDS011;60645;56.968;24.196;2022-09-09T20:51:43;3.03;;;1.35;;
72603;SDS011;60645;56.968;24.196;2022-09-09T20:54:12;4.10;;;1.00;;
72603;SDS011;60645;56.968;24.196;2022-09-09T20:56:44;3.17;;;1.27;;
72603;SDS011;60645;56.968;24.196;2022-09-09T20:59:13;3.22;;;1.23;;
72603;SDS011;60645;56.968;24.196;2022-09-09T21:01:41;4.68;;;1.30;;
72603;SDS011;60645;56.968;24.196;2022-09-09T21:04:09;2.03;;;0.90;;
72603;SDS011;60645;56.968;24.196;2022-09-09T21:06:36;3.47;;;1.10;;
72603;SDS011;60645;56.968;24.196;2022-09-09T21:09:03;4.45;;;1.15;;
72603;SDS011;60645;56.968;24.196;2022-09-09T21:11:31;5.40;;;1.55;;
72603;SDS011;60645;56.968;24.196;2022-09-09T21:14:00;2.67;;;0.98;;
72603;SDS011;60645;56.968;24.196;2022-09-09T21:16:28;3.20;;;1.42;;
72603;SDS011;60645;56.968;24.196;2022-09-09T21:18:55;2.05;;;0.90;;
72603;SDS011;60645;56.968;24.196;2022-09-09T21:21:22;4.32;;;1.17;;
72603;SDS011;60645;56.968;24.196;2022-09-09T21:23:49;2.17;;;1.02;;
72603;SDS011;60645;56.968;24.196;2022-09-09T21:26:19;2.35;;;1.15;;
72603;SDS011;60645;56.968;24.196;2022-09-09T21:28:45;2.90;;;1.08;;
72603;SDS011;60645;56.968;24.196;2022-09-09T21:31:16;3.20;;;1.38;;
72603;SDS011;60645;56.968;24.196;2022-09-09T21:33:43;2.10;;;1.05;;
72603;SDS011;60645;56.968;24.196;2022-09-09T21:36:12;2.22;;;1.20;;
72603;SDS011;60645;56.968;24.196;2022-09-09T21:38:40;2.00;;;0.85;;
72603;SDS011;60645;56.968;24.196;2022-09-09T21:41:09;2.70;;;0.90;;
72603;SDS011;60645;56.968;24.196;2022-09-09T21:43:38;1.35;;;0.82;;
72603;SDS011;60645;56.968;24.196;2022-09-09T21:46:10;2.65;;;1.02;;
72603;SDS011;60645;56.968;24.196;2022-09-09T21:48:40;4.60;;;1.05;;
72603;SDS011;60645;56.968;24.196;2022-09-09T21:51:08;1.92;;;0.90;;
72603;SDS011;60645;56.968;24.196;2022-09-09T21:53:39;1.85;;;1.08;;
72603;SDS011;60645;56.968;24.196;2022-09-09T21:56:09;2.65;;;1.00;;
72603;SDS011;60645;56.968;24.196;2022-09-09T21:58:37;1.88;;;0.82;;
72603;SDS011;60645;56.968;24.196;2022-09-09T22:01:10;1.15;;;0.55;;
72603;SDS011;60645;56.968;24.196;2022-09-09T22:03:38;2.03;;;1.23;;
72603;SDS011;60645;56.968;24.196;2022-09-09T22:06:08;4.10;;;1.15;;
72603;SDS011;60645;56.968;24.196;2022-09-09T22:08:36;2.58;;;0.90;;
72603;SDS011;60645;56.968;24.196;2022-09-09T22:11:07;1.33;;;0.60;;
72603;SDS011;60645;56.968;24.196;2022-09-09T22:13:39;1.90;;;0.77;;
72603;SDS011;60645;56.968;24.196;2022-09-09T22:16:08;1.30;;;0.70;;
72603;SDS011;60645;56.968;24.196;2022-09-09T22:18:37;2.42;;;1.30;;
72603;SDS011;60645;56.968;24.196;2022-09-09T22:21:05;2.25;;;0.65;;
72603;SDS011;60645;56.968;24.196;2022-09-09T22:23:33;2.55;;;0.77;;
72603;SDS011;60645;56.968;24.196;2022-09-09T22:26:02;1.92;;;0.82;;
72603;SDS011;60645;56.968;24.196;2022-09-09T22:28:29;2.35;;;0.88;;
72603;SDS011;60645;56.968;24.196;2022-09-09T22:30:57;2.30;;;0.95;;
72603;SDS011;60645;56.968;24.196;2022-09-09T22:33:24;2.55;;;0.47;;
72603;SDS011;60645;56.968;24.196;2022-09-09T22:35:52;4.78;;;0.90;;
72603;SDS011;60645;56.968;24.196;2022-09-09T22:38:20;5.18;;;0.90;;
72603;SDS011;60645;56.968;24.196;2022-09-09T22:40:47;1.50;;;0.43;;
72603;SDS011;60645;56.968;24.196;2022-09-09T22:43:15;1.88;;;0.70;;
72603;SDS011;60645;56.968;24.196;2022-09-09T22:45:44;1.75;;;0.93;;
72603;SDS011;60645;56.968;24.196;2022-09-09T22:48:12;2.05;;;0.93;;
72603;SDS011;60645;56.968;24.196;2022-09-09T22:50:39;1.42;;;0.63;;
72603;SDS011;60645;56.968;24.196;2022-09-09T22:53:08;2.38;;;0.45;;
72603;SDS011;60645;56.968;24.196;2022-09-09T22:55:38;2.80;;;0.90;;
72603;SDS011;60645;56.968;24.196;2022-09-09T22:58:06;2.67;;;0.80;;
72603;SDS011;60645;56.968;24.196;2022-09-09T23:00:33;1.83;;;0.63;;
72603;SDS011;60645;56.968;24.196;2022-09-09T23:03:00;1.00;;;0.55;;
72603;SDS011;60645;56.968;24.196;2022-09-09T23:05:27;1.98;;;0.80;;
72603;SDS011;60645;56.968;24.196;2022-09-09T23:07:54;2.10;;;0.70;;
72603;SDS011;60645;56.968;24.196;2022-09-09T23:10:23;1.27;;;0.63;;
72603;SDS011;60645;56.968;24.196;2022-09-09T23:12:52;2.10;;;0.50;;
72603;SDS011;60645;56.968;24.196;2022-09-09T23:15:19;1.65;;;0.45;;
72603;SDS011;60645;56.968;24.196;2022-09-09T23:17:46;1.73;;;0.70;;
72603;SDS011;60645;56.968;24.196;2022-09-09T23:20:13;1.85;;;0.68;;
72603;SDS011;60645;56.968;24.196;2022-09-09T23:22:39;1.73;;;0.60;;
72603;SDS011;60645;56.968;24.196;2022-09-09T23:25:06;0.95;;;0.50;;
72603;SDS011;60645;56.968;24.196;2022-09-09T23:27:33;1.45;;;0.60;;
72603;SDS011;60645;56.968;24.196;2022-09-09T23:30:03;1.17;;;0.43;;
72603;SDS011;60645;56.968;24.196;2022-09-09T23:32:32;1.30;;;0.70;;
72603;SDS011;60645;56.968;24.196;2022-09-09T23:34:59;2.33;;;0.52;;
72603;SDS011;60645;56.968;24.196;2022-09-09T23:37:25;2.17;;;0.70;;
72603;SDS011;60645;56.968;24.196;2022-09-09T23:39:52;2.15;;;0.88;;
72603;SDS011;60645;56.968;24.196;2022-09-09T23:42:19;2.58;;;0.73;;
72603;SDS011;60645;56.968;24.196;2022-09-09T23:44:46;1.58;;;0.60;;
72603;SDS011;60645;56.968;24.196;2022-09-09T23:47:13;2.38;;;0.88;;
72603;SDS011;60645;56.968;24.196;2022-09-09T23:49:40;1.90;;;0.63;;
72603;SDS011;60645;56.968;24.196;2022-09-09T23:52:07;2.28;;;0.52;;
72603;SDS011;60645;56.968;24.196;2022-09-09T23:54:34;1.13;;;0.65;;
72603;SDS011;60645;56.968;24.196;2022-09-09T23:57:01;1.42;;;0.50;;
72603;SDS011;60645;56.968;24.196;2022-09-09T23:59:29;1.30;;;0.60;;
